Kezdőlap
METAR-TAF:

METAR-TAF

Repülőterek :

Fremont Municipal Airport

Fremont, Nebraska, Amerikai Egyesült Államok

földrajzi szélesség: 41-27N, földrajzi hosszúság: 096-31W, magasság: 379 m

Jelenlegi meteorológiai megfigyelések

A jelentés 21 perccel ezelõtt készült, 16:35 UTC
Északnyugati szél 15 kt széllökések: 19 kt
Hőmérséklet 14°C
Páratartalom 47%
Légköri nyomás 1027 hPa
Látótávolság: 16.1 km
Derült ég

METAR: KFET 011635Z AUTO 31015G19KT 10SM CLR 14/03 A3033 RMK AO2 T01350029

Idő: 11:56 (16:56 UTC)


TAF: hiányzik

Meteorológiai megfigyelések és előrejelzések több, mint 4000 repülőtéren (METAR és TAF jelentéseket).

A térképen piros és sárga pontok jelzik az elérhető meteorológiai állomásokat.

Mozgassa az egeret a pont fölött, hogy megjelenjen az állomás neve.

Azután kattintson az időjárási megfigyelések és előrejelzések megtekintéséhez.

A térkép megváltoztatása: kattintson a fekete keresztel jelölt zöld gombra ráközelítéshez, a vonallal jelölt zöld gombra távolításhoz, vagy a zöld nyilakra a szomszédos térképek eléréséhez.


METAR-TAF: